Time;durP1;ratioP1;P1;durP2;ratioP2;P2;SDS_P1;SDS_P2;PMS_P1;PMS_P2;Temp;Humidity;BMP_temperature;BMP_pressure;BME280_temperature;BME280_humidity;BME280_pressure;Samples;Min_cycle;Max_cycle;Signal;HPM_P1;HPM_P2
2022/04/18 00:01:14;;;;;;;3.70;3.40;;;15.50;34.50;;;;;;4999071;28;20680;-42
2022/04/18 00:03:40;;;;;;;5.27;3.50;;;15.00;35.40;;;;;;5002982;28;20263;-42
2022/04/18 00:06:05;;;;;;;3.50;3.20;;;14.80;35.80;;;;;;4999691;28;20822;-42
2022/04/18 00:08:31;;;;;;;4.57;3.30;;;14.60;36.00;;;;;;5002432;28;20203;-42
2022/04/18 00:10:56;;;;;;;4.23;3.50;;;14.50;36.40;;;;;;5004148;28;20228;-42
2022/04/18 00:13:22;;;;;;;3.90;3.40;;;14.30;36.60;;;;;;5002424;28;20269;-43
2022/04/18 00:15:49;;;;;;;4.00;3.60;;;14.10;37.20;;;;;;5004509;28;20193;-42
2022/04/18 00:18:14;;;;;;;3.93;3.57;;;14.00;37.30;;;;;;5005280;28;20182;-42
2022/04/18 00:20:40;;;;;;;5.93;3.40;;;13.90;37.60;;;;;;5000902;28;20460;-41
2022/04/18 00:23:05;;;;;;;4.90;3.20;;;13.70;37.90;;;;;;5004059;28;20244;-42
2022/04/18 00:25:31;;;;;;;5.23;3.70;;;13.60;38.30;;;;;;5000141;28;20196;-42
2022/04/18 00:27:57;;;;;;;4.97;3.40;;;13.40;38.60;;;;;;5004212;28;20234;-42
2022/04/18 00:30:22;;;;;;;3.50;3.20;;;13.30;38.90;;;;;;5002278;28;20227;-42
2022/04/18 00:32:48;;;;;;;5.70;3.40;;;13.30;38.90;;;;;;5003520;28;20581;-42
2022/04/18 00:35:13;;;;;;;3.00;2.70;;;13.30;38.90;;;;;;5009699;28;20677;-42
2022/04/18 00:37:40;;;;;;;4.00;3.70;;;13.30;39.00;;;;;;5006150;28;20202;-42
2022/04/18 00:40:07;;;;;;;3.40;3.10;;;13.30;39.10;;;;;;5003898;28;20881;-42
2022/04/18 00:42:35;;;;;;;4.63;3.53;;;13.20;39.20;;;;;;5002103;28;20544;-42
2022/04/18 00:45:01;;;;;;;4.73;3.50;;;13.00;39.70;;;;;;5002870;28;21018;-42
2022/04/18 00:47:27;;;;;;;5.30;3.80;;;13.00;39.80;;;;;;5004372;28;20445;-42
2022/04/18 00:49:52;;;;;;;4.23;3.83;;;13.00;40.00;;;;;;5003561;28;20752;-42
2022/04/18 00:52:18;;;;;;;4.70;3.50;;;13.00;40.00;;;;;;5002498;28;20320;-43
2022/04/18 00:54:45;;;;;;;5.90;3.70;;;13.00;40.20;;;;;;5000594;28;20193;-42
2022/04/18 00:57:11;;;;;;;5.43;3.20;;;12.90;40.10;;;;;;5011993;28;20465;-42
2022/04/18 00:59:39;;;;;;;4.07;3.53;;;12.90;40.20;;;;;;5010363;28;20444;-42
2022/04/18 01:02:05;;;;;;;4.50;3.40;;;12.80;40.30;;;;;;5004846;28;20198;-42
2022/04/18 01:04:32;;;;;;;4.27;3.60;;;12.80;40.40;;;;;;5003423;28;20463;-42
2022/04/18 01:06:59;;;;;;;3.77;3.37;;;12.80;40.30;;;;;;5007601;28;20447;-42
2022/04/18 01:09:24;;;;;;;4.70;3.70;;;12.70;40.30;;;;;;5006909;28;20995;-42
2022/04/18 01:11:50;;;;;;;4.27;3.37;;;12.70;40.50;;;;;;4999975;28;20449;-42
2022/04/18 01:14:16;;;;;;;4.37;3.43;;;12.60;40.40;;;;;;5003849;28;20197;-42
2022/04/18 01:16:42;;;;;;;3.40;3.00;;;12.60;40.50;;;;;;4996860;28;20293;-42
2022/04/18 01:19:09;;;;;;;4.20;3.83;;;12.50;40.90;;;;;;5001809;28;20251;-42
2022/04/18 01:21:35;;;;;;;3.53;3.20;;;12.40;41.60;;;;;;5003088;28;20531;-42
2022/04/18 01:24:01;;;;;;;4.80;3.80;;;12.40;41.20;;;;;;5004057;28;20479;-42
2022/04/18 01:29:11;;;;;;;5.03;3.67;;;12.40;41.30;;;;;;5004652;28;20500;-42
2022/04/18 01:31:38;;;;;;;6.57;3.80;;;12.20;41.80;;;;;;5008945;28;20432;-42
2022/04/18 01:34:05;;;;;;;4.40;3.73;;;12.20;41.70;;;;;;5009513;28;20566;-42
2022/04/18 01:36:31;;;;;;;4.40;2.77;;;12.10;41.60;;;;;;5000244;28;20460;-41
2022/04/18 01:38:57;;;;;;;3.47;2.87;;;12.10;41.50;;;;;;5001584;28;20459;-42
2022/04/18 01:41:23;;;;;;;4.47;3.17;;;12.10;41.40;;;;;;4999915;28;20437;-41
2022/04/18 01:43:49;;;;;;;4.47;3.00;;;12.10;41.50;;;;;;5013865;28;20229;-42
2022/04/18 01:46:15;;;;;;;3.60;3.30;;;12.10;41.50;;;;;;5003736;28;21035;-42
2022/04/18 01:48:42;;;;;;;3.77;3.37;;;12.10;42.00;;;;;;5001098;28;20511;-42
2022/04/18 01:51:07;;;;;;;3.40;3.10;;;12.10;41.30;;;;;;5005158;28;20476;-42
2022/04/18 01:53:33;;;;;;;3.40;3.10;;;12.00;41.30;;;;;;5003429;28;20437;-42
2022/04/18 01:55:59;;;;;;;4.00;3.13;;;11.90;41.50;;;;;;5003119;28;20194;-41
2022/04/18 01:58:25;;;;;;;4.50;4.20;;;11.90;41.60;;;;;;5000751;28;20619;-42
2022/04/18 02:00:50;;;;;;;3.90;3.60;;;11.80;41.50;;;;;;5000854;28;20198;-42
2022/04/18 02:03:16;;;;;;;4.10;3.70;;;11.80;41.40;;;;;;5000529;28;20192;-42
2022/04/18 02:05:43;;;;;;;3.97;3.30;;;11.80;41.50;;;;;;4997052;28;20209;-42
2022/04/18 02:08:09;;;;;;;4.80;3.67;;;11.70;41.60;;;;;;5000128;28;20233;-42
2022/04/18 02:10:35;;;;;;;4.30;3.63;;;11.70;41.80;;;;;;5000077;28;20492;-42
2022/04/18 02:13:00;;;;;;;4.83;3.40;;;11.70;42.00;;;;;;5000566;28;20448;-42
2022/04/18 02:15:26;;;;;;;3.90;3.43;;;11.70;42.20;;;;;;5001459;28;20234;-41
2022/04/18 02:17:51;;;;;;;4.80;3.20;;;11.60;42.30;;;;;;4999741;28;21524;-42
2022/04/18 02:20:18;;;;;;;3.20;2.90;;;11.60;42.30;;;;;;5005982;28;21875;-41
2022/04/18 02:22:44;;;;;;;4.70;3.23;;;11.60;42.30;;;;;;4997725;28;20203;-42
2022/04/18 02:25:09;;;;;;;7.13;3.40;;;11.60;42.30;;;;;;5001169;28;20457;-43
2022/04/18 02:27:36;;;;;;;4.00;3.27;;;11.50;42.30;;;;;;5003497;28;20197;-41
2022/04/18 02:30:03;;;;;;;3.63;3.33;;;11.40;42.50;;;;;;5000415;28;20745;-42
2022/04/18 02:35:13;;;;;;;3.50;3.20;;;11.40;42.60;;;;;;4997937;28;20448;-42
2022/04/18 02:37:38;;;;;;;4.23;3.67;;;11.20;42.70;;;;;;4999221;28;20449;-42
2022/04/18 02:40:05;;;;;;;3.70;3.40;;;11.10;43.10;;;;;;5004120;28;20451;-42
2022/04/18 02:42:31;;;;;;;5.27;3.47;;;11.00;43.40;;;;;;5007797;28;20276;-41
2022/04/18 02:44:57;;;;;;;4.70;3.30;;;11.00;43.90;;;;;;5006058;28;20579;-41
2022/04/18 02:47:23;;;;;;;3.83;3.50;;;11.00;44.00;;;;;;4998889;28;20222;-42
2022/04/18 02:49:50;;;;;;;4.33;3.93;;;10.90;44.20;;;;;;5004756;28;20735;-42
2022/04/18 02:52:17;;;;;;;5.17;3.60;;;10.90;44.50;;;;;;5004242;28;20473;-41
2022/04/18 02:54:44;;;;;;;4.37;3.50;;;10.90;44.50;;;;;;4999961;28;20456;-41
2022/04/18 02:57:12;;;;;;;5.83;3.20;;;10.90;44.30;;;;;;5009415;28;20568;-43
2022/04/18 02:59:41;;;;;;;4.40;3.27;;;10.90;44.10;;;;;;4999035;28;20498;-42
2022/04/18 03:02:07;;;;;;;4.10;3.27;;;10.90;44.10;;;;;;5005747;28;20540;-43
2022/04/18 03:04:33;;;;;;;4.63;3.73;;;10.90;44.10;;;;;;5000044;28;20555;-46
2022/04/18 03:06:58;;;;;;;3.40;3.10;;;10.90;44.00;;;;;;4999812;28;20271;-43
2022/04/18 03:09:24;;;;;;;9.80;3.17;;;10.80;43.80;;;;;;5001139;28;20252;-44
2022/04/18 03:11:50;;;;;;;4.00;3.60;;;10.80;44.00;;;;;;5002786;28;20201;-44
2022/04/18 03:14:15;;;;;;;3.40;3.10;;;10.80;44.00;;;;;;5004735;28;20205;-44
2022/04/18 03:16:41;;;;;;;3.17;2.97;;;10.80;43.90;;;;;;5003536;28;20197;-43
2022/04/18 03:19:06;;;;;;;3.60;3.10;;;10.80;43.80;;;;;;5005691;28;20216;-43
2022/04/18 03:21:32;;;;;;;3.50;3.20;;;10.80;43.60;;;;;;5001187;28;20573;-44
2022/04/18 03:23:58;;;;;;;4.00;3.60;;;10.80;43.60;;;;;;5000646;28;20221;-43
2022/04/18 03:26:23;;;;;;;3.27;2.90;;;10.80;43.60;;;;;;4997049;28;20217;-44
2022/04/18 03:28:49;;;;;;;3.40;3.10;;;10.70;43.70;;;;;;5000606;28;20708;-42
2022/04/18 03:31:14;;;;;;;3.60;3.30;;;10.70;43.80;;;;;;4997997;28;20213;-43
2022/04/18 03:33:40;;;;;;;3.87;3.20;;;10.70;43.70;;;;;;5000327;28;20198;-43
2022/04/18 03:41:34;;;;;;;3.50;3.17;;;10.40;44.20;;;;;;4999596;28;20579;-44
2022/04/18 03:43:59;;;;;;;3.87;3.40;;;10.40;44.20;;;;;;5008948;28;20567;-43
2022/04/18 03:46:25;;;;;;;4.10;3.30;;;10.40;44.40;;;;;;5010711;28;20282;-43
2022/04/18 03:48:51;;;;;;;7.90;3.73;;;10.30;44.40;;;;;;5006909;28;20272;-44
2022/04/18 03:51:16;;;;;;;3.20;2.90;;;10.20;44.70;;;;;;5010433;28;20193;-43
2022/04/18 03:53:42;;;;;;;4.97;3.30;;;10.20;45.00;;;;;;5004325;28;20260;-44
2022/04/18 03:56:07;;;;;;;3.80;3.50;;;10.00;45.30;;;;;;5003124;28;20210;-44
2022/04/18 03:58:33;;;;;;;3.50;3.20;;;9.90;46.50;;;;;;5006085;28;20194;-43
2022/04/18 04:00:58;;;;;;;4.13;3.73;;;9.70;46.80;;;;;;5000734;28;20197;-43
2022/04/18 04:03:26;;;;;;;6.43;3.80;;;9.60;47.30;;;;;;5003781;28;20229;-43
2022/04/18 04:05:53;;;;;;;6.93;3.67;;;9.50;47.50;;;;;;5011349;28;20258;-43
2022/04/18 04:08:22;;;;;;;4.03;3.63;;;9.50;47.70;;;;;;5000995;28;20461;-43
2022/04/18 04:10:54;;;;;;;4.53;3.47;;;9.60;47.50;;;;;;5008849;28;20480;-43
2022/04/18 04:13:20;;;;;;;3.47;3.17;;;9.60;47.50;;;;;;5003008;28;20589;-43
2022/04/18 04:15:46;;;;;;;5.17;3.60;;;9.40;47.80;;;;;;5006732;28;20444;-44
2022/04/18 04:18:12;;;;;;;4.73;3.53;;;9.40;47.70;;;;;;5009797;28;20499;-44
2022/04/18 04:20:38;;;;;;;4.80;3.57;;;9.40;47.90;;;;;;5012095;28;20449;-43
2022/04/18 04:23:04;;;;;;;4.60;3.03;;;9.40;47.90;;;;;;5004360;28;20202;-43
2022/04/18 04:25:29;;;;;;;4.27;3.87;;;9.40;47.80;;;;;;5004492;28;20547;-43
2022/04/18 04:27:55;;;;;;;6.07;4.27;;;9.50;47.60;;;;;;5004475;28;20441;-43
2022/04/18 04:30:21;;;;;;;4.30;3.80;;;9.60;47.50;;;;;;5007066;28;20284;-44
2022/04/18 04:32:48;;;;;;;9.03;4.30;;;9.60;47.40;;;;;;5004764;28;20346;-43
2022/04/18 04:35:14;;;;;;;4.40;3.30;;;9.40;47.90;;;;;;5006907;28;20603;-44
2022/04/18 04:37:40;;;;;;;3.53;3.23;;;9.40;48.20;;;;;;5004927;28;20445;-44
2022/04/18 04:40:06;;;;;;;4.13;3.40;;;9.40;48.10;;;;;;5003126;28;20460;-44
2022/04/18 04:42:31;;;;;;;4.93;4.43;;;9.50;47.90;;;;;;5000143;28;20195;-43
2022/04/18 04:44:57;;;;;;;3.90;3.50;;;9.50;47.90;;;;;;5011061;28;20802;-43
2022/04/18 04:47:23;;;;;;;3.90;3.10;;;9.40;47.80;;;;;;5003268;28;20193;-43
2022/04/18 04:49:49;;;;;;;4.40;3.23;;;9.40;48.10;;;;;;5003458;28;20532;-44
2022/04/18 04:52:14;;;;;;;4.03;3.40;;;9.30;48.00;;;;;;5001900;28;20565;-43
2022/04/18 04:54:40;;;;;;;6.00;4.10;;;9.40;48.10;;;;;;5005679;28;20194;-41
2022/04/18 04:57:05;;;;;;;4.07;3.37;;;9.40;47.90;;;;;;5009379;28;20642;-44
2022/04/18 04:59:31;;;;;;;4.07;3.57;;;9.10;48.40;;;;;;5004848;28;20206;-43
2022/04/18 05:01:57;;;;;;;3.67;3.37;;;9.10;48.80;;;;;;5004558;28;20190;-44
2022/04/18 05:04:25;;;;;;;5.03;3.10;;;9.30;48.80;;;;;;5006642;28;20205;-43
2022/04/18 05:06:52;;;;;;;6.47;3.70;;;9.30;48.60;;;;;;4997807;28;20202;-43
2022/04/18 05:09:17;;;;;;;5.10;3.30;;;9.30;48.60;;;;;;5004461;28;20486;-43
2022/04/18 05:11:44;;;;;;;3.73;3.40;;;9.40;48.30;;;;;;5008639;28;20448;-43
2022/04/18 05:14:10;;;;;;;3.50;3.20;;;9.50;48.00;;;;;;5002320;28;20218;-44
2022/04/18 05:16:35;;;;;;;3.67;3.37;;;9.60;47.80;;;;;;5002404;28;20805;-44
2022/04/18 05:19:01;;;;;;;4.30;3.73;;;9.60;47.70;;;;;;5002010;28;20194;-43
2022/04/18 05:21:27;;;;;;;4.47;3.40;;;9.70;47.70;;;;;;5002806;28;20320;-43
2022/04/18 05:23:52;;;;;;;5.20;3.23;;;9.70;47.60;;;;;;5001845;28;20225;-43
2022/04/18 05:26:18;;;;;;;4.70;3.50;;;9.70;47.40;;;;;;5003418;28;20198;-43
2022/04/18 05:28:43;;;;;;;3.80;3.50;;;9.80;47.50;;;;;;5001335;28;20198;-44
2022/04/18 05:31:09;;;;;;;4.60;3.70;;;9.80;47.40;;;;;;5004946;28;20253;-43
2022/04/18 05:33:35;;;;;;;3.83;3.53;;;9.70;47.70;;;;;;5006815;28;20200;-44
2022/04/18 05:36:00;;;;;;;4.30;3.90;;;9.40;48.40;;;;;;5000298;28;20222;-43
2022/04/18 05:38:26;;;;;;;6.90;3.53;;;9.00;49.30;;;;;;5008628;28;20225;-43
2022/04/18 05:40:52;;;;;;;3.63;3.33;;;8.80;50.80;;;;;;5000914;28;20217;-43
2022/04/18 05:43:17;;;;;;;3.80;3.50;;;9.10;52.40;;;;;;5006101;28;20433;-43
2022/04/18 05:45:44;;;;;;;4.30;3.90;;;9.60;51.10;;;;;;5003001;28;20245;-43
2022/04/18 05:48:09;;;;;;;6.10;4.20;;;10.00;49.20;;;;;;5008444;28;20225;-43
2022/04/18 05:50:35;;;;;;;8.43;5.90;;;10.30;48.20;;;;;;4998997;28;21055;-43
2022/04/18 05:53:01;;;;;;;5.53;4.50;;;10.70;47.20;;;;;;4997020;28;20202;-43
2022/04/18 05:55:27;;;;;;;7.13;4.50;;;10.90;46.20;;;;;;5009463;28;20194;-43
2022/04/18 05:57:53;;;;;;;6.10;4.40;;;11.00;45.50;;;;;;5004751;28;21064;-43
2022/04/18 06:00:19;;;;;;;4.20;3.80;;;11.20;45.30;;;;;;4998732;28;20208;-43
2022/04/18 06:02:45;;;;;;;7.33;4.80;;;11.50;44.90;;;;;;5001366;28;20729;-42
2022/04/18 06:05:10;;;;;;;5.07;4.50;;;11.70;44.50;;;;;;5002881;28;20456;-44
2022/04/18 06:07:36;;;;;;;4.77;4.27;;;11.80;43.90;;;;;;5008894;28;20281;-43
2022/04/18 06:10:03;;;;;;;4.23;3.90;;;12.00;43.60;;;;;;5004794;28;20233;-43
2022/04/18 06:12:29;;;;;;;7.27;4.27;;;12.00;43.30;;;;;;5009950;28;20617;-44
2022/04/18 06:14:54;;;;;;;3.93;3.53;;;12.20;42.70;;;;;;5008508;28;20446;-43
2022/04/18 06:17:20;;;;;;;4.37;3.60;;;12.40;42.60;;;;;;5007167;28;20209;-43
2022/04/18 06:19:46;;;;;;;4.30;3.73;;;12.50;42.20;;;;;;5007101;28;20205;-43
2022/04/18 06:22:11;;;;;;;4.13;3.40;;;12.60;41.80;;;;;;5008231;28;20194;-42
2022/04/18 06:24:37;;;;;;;3.80;2.90;;;12.80;41.60;;;;;;5008021;28;20614;-41
2022/04/18 06:27:03;;;;;;;3.57;2.97;;;12.80;41.20;;;;;;5008607;28;20202;-43
2022/04/18 06:29:29;;;;;;;5.10;3.90;;;12.90;40.90;;;;;;4999717;28;20253;-42
2022/04/18 06:31:54;;;;;;;4.10;3.40;;;13.00;40.70;;;;;;4999113;28;20442;-42
2022/04/18 06:34:20;;;;;;;4.30;3.30;;;12.80;40.90;;;;;;5006874;28;20201;-42
2022/04/18 06:36:46;;;;;;;4.70;2.90;;;12.50;40.90;;;;;;5003368;28;20198;-41
2022/04/18 06:39:12;;;;;;;5.37;3.03;;;12.40;41.30;;;;;;5004021;28;20508;-42
2022/04/18 06:41:37;;;;;;;5.07;3.80;;;12.60;41.20;;;;;;5004906;28;20193;-41
2022/04/18 06:44:03;;;;;;;4.20;3.07;;;13.00;40.50;;;;;;5006357;28;20761;-42
2022/04/18 06:46:29;;;;;;;4.17;3.70;;;13.40;40.00;;;;;;5006909;28;20225;-43
2022/04/18 06:48:54;;;;;;;4.40;3.40;;;13.70;39.30;;;;;;5002973;28;20437;-42
2022/04/18 06:51:20;;;;;;;6.70;3.17;;;13.80;37.60;;;;;;5000269;28;20205;-42
2022/04/18 06:53:46;;;;;;;4.10;3.40;;;13.50;37.10;;;;;;5005666;28;20194;-42
2022/04/18 06:58:56;;;;;;;3.37;3.00;;;13.70;37.20;;;;;;5009933;28;20456;-43
2022/04/18 07:01:21;;;;;;;5.00;3.50;;;13.90;37.00;;;;;;5006944;28;20809;-42
2022/04/18 07:03:47;;;;;;;6.20;2.93;;;13.80;36.20;;;;;;5005040;28;20516;-43
2022/04/18 07:06:13;;;;;;;3.27;2.83;;;13.70;36.50;;;;;;4996981;28;20190;-44
2022/04/18 07:08:38;;;;;;;3.40;3.03;;;13.90;36.60;;;;;;5002641;28;20249;-43
2022/04/18 07:11:04;;;;;;;5.97;3.87;;;14.20;36.30;;;;;;5002048;28;20252;-44
2022/04/18 07:13:30;;;;;;;4.73;3.10;;;14.60;35.70;;;;;;5001247;28;20279;-43
2022/04/18 07:15:55;;;;;;;4.90;3.30;;;14.90;35.00;;;;;;5001347;28;20200;-42
2022/04/18 07:18:21;;;;;;;4.63;3.37;;;14.70;34.80;;;;;;5003198;28;20190;-44
2022/04/18 07:20:47;;;;;;;3.80;3.27;;;14.60;35.40;;;;;;5013107;28;20205;-45
2022/04/18 07:23:13;;;;;;;4.70;3.27;;;14.20;35.60;;;;;;5000305;28;20194;-43
2022/04/18 07:25:39;;;;;;;6.30;4.10;;;14.60;36.50;;;;;;5005447;28;20217;-45
2022/04/18 07:28:05;;;;;;;3.30;3.00;;;14.70;35.40;;;;;;5003950;28;20719;-43
2022/04/18 07:30:30;;;;;;;3.57;3.27;;;14.70;34.90;;;;;;5003617;28;20488;-43
2022/04/18 07:32:57;;;;;;;3.63;3.33;;;14.80;35.20;;;;;;4999219;28;20510;-44
2022/04/18 07:35:22;;;;;;;4.20;3.80;;;14.80;34.90;;;;;;5005890;28;20240;-43
2022/04/18 07:40:32;;;;;;;3.90;3.47;;;15.00;34.70;;;;;;5005945;28;20817;-43
2022/04/18 07:42:57;;;;;;;4.10;3.50;;;14.80;34.00;;;;;;5008206;28;20551;-44
2022/04/18 07:45:23;;;;;;;5.00;3.63;;;14.90;34.50;;;;;;5005624;28;20321;-45
2022/04/18 07:47:52;;;;;;;6.40;3.97;;;15.10;34.30;;;;;;5009881;28;20610;-45
2022/04/18 07:50:18;;;;;;;3.90;3.50;;;15.40;34.50;;;;;;5007861;28;20218;-43
2022/04/18 07:52:44;;;;;;;3.93;3.63;;;15.70;33.70;;;;;;5009471;28;20429;-43
2022/04/18 07:55:10;;;;;;;3.30;3.00;;;15.90;33.10;;;;;;5008156;28;20455;-43
2022/04/18 07:57:37;;;;;;;7.43;3.77;;;16.00;32.30;;;;;;5009910;28;20597;-44
2022/04/18 08:00:05;;;;;;;4.20;3.70;;;16.10;32.40;;;;;;5007763;28;20983;-45
2022/04/18 08:02:30;;;;;;;4.63;3.83;;;16.40;33.10;;;;;;5008799;28;20449;-43
2022/04/18 08:04:56;;;;;;;4.47;4.07;;;16.50;32.70;;;;;;5005973;28;20451;-44
2022/04/18 08:07:21;;;;;;;3.47;3.17;;;16.50;32.10;;;;;;5009429;28;20193;-44
2022/04/18 08:09:47;;;;;;;4.50;4.10;;;16.60;32.10;;;;;;5009118;28;20268;-44
2022/04/18 08:12:12;;;;;;;4.60;3.80;;;16.60;31.70;;;;;;5007544;28;20209;-43
2022/04/18 08:14:38;;;;;;;3.50;3.20;;;16.70;31.70;;;;;;5007868;28;20221;-44
2022/04/18 08:17:04;;;;;;;4.13;3.63;;;16.80;32.00;;;;;;5008198;28;20202;-44
2022/04/18 08:19:30;;;;;;;3.53;3.23;;;17.30;31.30;;;;;;5009983;28;20202;-43
2022/04/18 08:21:56;;;;;;;3.60;3.30;;;17.30;30.90;;;;;;5007673;28;20440;-44
2022/04/18 08:24:21;;;;;;;3.40;3.10;;;17.50;31.30;;;;;;5009334;28;20232;-43
2022/04/18 08:26:48;;;;;;;4.40;4.00;;;17.80;31.70;;;;;;5006209;28;20484;-42
2022/04/18 08:29:14;;;;;;;5.20;3.30;;;18.00;30.80;;;;;;5010818;28;20723;-44
2022/04/18 08:31:39;;;;;;;9.53;3.67;;;18.00;30.30;;;;;;5009451;28;20468;-45
2022/04/18 08:34:05;;;;;;;4.37;3.10;;;18.30;30.70;;;;;;5013574;28;20304;-45
2022/04/18 08:36:33;;;;;;;3.97;3.30;;;18.10;29.90;;;;;;5011618;28;20584;-43
2022/04/18 08:38:59;;;;;;;3.40;3.10;;;18.30;30.20;;;;;;5013173;28;20293;-43
2022/04/18 08:41:32;;;;;;;4.40;3.00;;;18.60;30.30;;;;;;5009905;28;20531;-43
2022/04/18 08:43:58;;;;;;;4.23;2.90;;;18.70;29.70;;;;;;5012459;28;20245;-43
2022/04/18 08:46:23;;;;;;;3.70;3.20;;;18.90;30.10;;;;;;5011162;28;20933;-43
2022/04/18 08:54:39;;;;;;;3.87;3.47;;;19.50;29.80;;;;;;4956807;28;20493;-46
2022/04/18 08:57:05;;;;;;;4.47;3.43;;;19.80;29.10;;;;;;4952659;28;20448;-48
2022/04/18 08:59:31;;;;;;;3.37;3.07;;;19.50;28.80;;;;;;4976420;28;20455;-44
2022/04/18 09:01:56;;;;;;;3.60;3.17;;;19.80;29.40;;;;;;5003189;28;20198;-43
2022/04/18 09:04:22;;;;;;;3.90;3.60;;;20.30;28.80;;;;;;5010734;28;20718;-44
2022/04/18 09:06:48;;;;;;;4.77;3.60;;;20.40;27.80;;;;;;5006979;28;20672;-43
2022/04/18 09:09:14;;;;;;;3.70;3.00;;;20.30;28.30;;;;;;5007964;28;20669;-43
2022/04/18 09:11:40;;;;;;;4.40;3.83;;;20.00;27.00;;;;;;5008283;28;20515;-43
2022/04/18 09:14:11;;;;;;;5.40;4.07;;;19.90;27.20;;;;;;5005414;28;20916;-44
2022/04/18 09:16:38;;;;;;;4.73;3.40;;;19.30;27.10;;;;;;5000298;28;20456;-44
2022/04/18 09:19:09;;;;;;;3.83;3.37;;;19.20;27.60;;;;;;5014465;28;20455;-45
2022/04/18 09:21:56;;;;;;;3.50;3.20;;;19.30;28.00;;;;;;5006946;28;20460;-43
2022/04/18 09:24:33;;;;;;;4.47;2.80;;;19.80;28.00;;;;;;5006063;28;20452;-44
2022/04/18 09:27:03;;;;;;;4.10;3.40;;;19.80;27.70;;;;;;5031347;28;20439;-43
2022/04/18 09:29:38;;;;;;;5.10;3.90;;;20.00;27.60;;;;;;5011194;28;20476;-43
2022/04/18 09:32:11;;;;;;;4.60;3.63;;;20.40;27.60;;;;;;5008361;28;20479;-45
2022/04/18 09:34:38;;;;;;;3.73;3.43;;;20.60;27.10;;;;;;4996498;28;20433;-43
2022/04/18 09:37:14;;;;;;;3.57;3.27;;;20.30;27.50;;;;;;5005001;28;20874;-43
2022/04/18 09:39:50;;;;;;;3.40;3.10;;;20.60;27.50;;;;;;5001663;28;20451;-44
2022/04/18 09:42:15;;;;;;;4.03;3.63;;;21.10;27.00;;;;;;5006441;28;20528;-44
2022/04/18 09:44:41;;;;;;;3.80;3.17;;;21.50;26.80;;;;;;5008033;28;20576;-44
2022/04/18 09:47:13;;;;;;;3.90;3.50;;;21.50;26.50;;;;;;5005744;28;20555;-43
2022/04/18 09:49:40;;;;;;;3.60;3.30;;;21.30;25.90;;;;;;5006918;28;20484;-43
2022/04/18 09:52:18;;;;;;;4.00;3.67;;;21.10;26.20;;;;;;4999462;28;20437;-45
2022/04/18 09:55:05;;;;;;;3.47;3.17;;;20.80;26.20;;;;;;5004578;28;20762;-43
2022/04/18 09:57:30;;;;;;;3.60;3.30;;;20.80;26.40;;;;;;5001906;28;20445;-44
2022/04/18 09:59:58;;;;;;;4.40;4.00;;;21.20;26.40;;;;;;5002629;28;20461;-44
2022/04/18 10:02:25;;;;;;;3.17;2.87;;;21.40;26.20;;;;;;5002473;28;20194;-43
2022/04/18 10:04:52;;;;;;;3.10;2.90;;;20.60;25.60;;;;;;5010702;28;20420;-44
2022/04/18 10:07:18;;;;;;;3.90;3.50;;;20.60;26.80;;;;;;5004406;28;20540;-44
2022/04/18 10:09:44;;;;;;;3.20;2.90;;;21.20;26.70;;;;;;5008589;28;20485;-44
2022/04/18 10:12:11;;;;;;;4.60;3.40;;;21.50;26.20;;;;;;5007383;28;20447;-45
2022/04/18 10:14:38;;;;;;;3.87;3.00;;;21.50;25.30;;;;;;5010095;28;20582;-44
2022/04/18 10:17:07;;;;;;;3.50;3.20;;;21.60;26.10;;;;;;5012434;28;20451;-45
2022/04/18 10:19:35;;;;;;;4.20;2.87;;;21.40;26.50;;;;;;5012298;28;20520;-44
2022/04/18 10:22:19;;;;;;;6.13;3.43;;;21.80;26.10;;;;;;5008411;28;20459;-44
2022/04/18 10:25:04;;;;;;;3.47;3.17;;;22.10;25.50;;;;;;5005980;28;20514;-45
2022/04/18 10:27:47;;;;;;;3.90;3.50;;;21.40;25.70;;;;;;5009533;28;20488;-44
2022/04/18 10:30:14;;;;;;;4.70;3.13;;;21.90;26.20;;;;;;5004477;28;20488;-44
2022/04/18 10:32:40;;;;;;;4.20;2.70;;;22.50;25.40;;;;;;4996527;28;20466;-43
2022/04/18 10:35:07;;;;;;;5.80;3.33;;;23.00;25.60;;;;;;4996884;28;21015;-44
2022/04/18 10:37:33;;;;;;;6.40;2.80;;;23.50;25.40;;;;;;5003649;28;20445;-44
2022/04/18 10:40:05;;;;;;;3.30;3.00;;;23.80;25.00;;;;;;5005195;28;20441;-44
2022/04/18 10:42:36;;;;;;;3.73;2.87;;;24.10;25.10;;;;;;5024322;28;20233;-45
2022/04/18 10:45:12;;;;;;;4.47;3.20;;;24.30;25.40;;;;;;5008107;28;20500;-45
2022/04/18 10:48:00;;;;;;;3.53;3.23;;;23.80;23.80;;;;;;5010339;28;20468;-46
2022/04/18 10:50:40;;;;;;;3.80;3.20;;;23.30;23.70;;;;;;5005114;28;21279;-47
2022/04/18 10:53:10;;;;;;;3.20;2.80;;;23.60;25.10;;;;;;5006673;28;20460;-44
2022/04/18 10:55:37;;;;;;;3.00;2.80;;;24.20;24.70;;;;;;5005536;28;20440;-46
2022/04/18 10:58:12;;;;;;;5.43;3.20;;;24.60;23.80;;;;;;5008982;28;20944;-46
2022/04/18 11:00:51;;;;;;;3.63;3.17;;;25.00;23.40;;;;;;5003698;28;20431;-45
2022/04/18 11:03:35;;;;;;;3.70;3.20;;;25.30;22.80;;;;;;5008046;28;20189;-44
2022/04/18 11:06:37;;;;;;;2.87;2.57;;;25.30;23.10;;;;;;5007493;28;20463;-45
2022/04/18 11:09:07;;;;;;;3.07;2.77;;;25.20;23.20;;;;;;5005465;28;20455;-44
2022/04/18 11:11:48;;;;;;;3.40;2.78;;;24.30;23.00;;;;;;5005943;28;20435;-45
2022/04/18 11:14:25;;;;;;;3.27;2.97;;;24.50;24.00;;;;;;5008963;28;20296;-45
2022/04/18 11:16:55;;;;;;;2.80;2.60;;;24.80;23.10;;;;;;4999990;28;20441;-46
2022/04/18 11:19:47;;;;;;;2.87;2.67;;;25.00;23.80;;;;;;5005575;28;20884;-44
2022/04/18 11:22:18;;;;;;;2.90;2.70;;;25.40;23.50;;;;;;5003878;28;21013;-45
2022/04/18 11:24:54;;;;;;;2.87;2.67;;;26.00;23.50;;;;;;5009095;28;20440;-46
2022/04/18 11:27:27;;;;;;;3.40;3.00;;;26.40;22.70;;;;;;5008256;28;20961;-45
2022/04/18 11:29:54;;;;;;;3.17;2.87;;;26.70;23.10;;;;;;5006719;28;20495;-44
2022/04/18 11:32:25;;;;;;;3.90;3.43;;;26.90;21.60;;;;;;4999639;28;20437;-43
2022/04/18 11:34:53;;;;;;;2.80;2.60;;;26.30;21.20;;;;;;5003708;28;20444;-44
2022/04/18 11:37:21;;;;;;;2.80;2.60;;;25.00;22.80;;;;;;4999522;28;20434;-44
2022/04/18 11:39:49;;;;;;;3.43;3.07;;;24.80;23.30;;;;;;5001514;28;20449;-44
2022/04/18 11:42:17;;;;;;;2.97;2.77;;;24.60;22.90;;;;;;5007653;28;20786;-44
2022/04/18 11:44:44;;;;;;;3.30;3.00;;;24.70;23.50;;;;;;5007323;28;20488;-46
2022/04/18 11:47:12;;;;;;;3.40;3.10;;;25.20;22.40;;;;;;4997680;28;21114;-44
2022/04/18 11:49:38;;;;;;;2.90;2.70;;;25.60;22.20;;;;;;5022741;28;20483;-45
2022/04/18 11:52:06;;;;;;;3.37;2.87;;;26.00;21.90;;;;;;4999357;28;20806;-44
2022/04/18 11:54:32;;;;;;;3.40;3.03;;;26.20;22.50;;;;;;5006268;28;20850;-44
2022/04/18 11:56:59;;;;;;;3.43;3.13;;;26.40;22.00;;;;;;5008171;28;20457;-44
2022/04/18 11:59:32;;;;;;;3.60;2.60;;;26.20;21.60;;;;;;5001102;28;20453;-46
2022/04/18 12:07:30;;;;;;;4.13;3.50;;;26.90;21.70;;;;;;5011828;28;20459;-43
2022/04/18 12:09:56;;;;;;;7.00;5.30;;;25.40;21.90;;;;;;4997855;28;20973;-45
2022/04/18 12:12:28;;;;;;;3.90;3.20;;;25.00;22.50;;;;;;5006946;28;20198;-44
2022/04/18 12:14:54;;;;;;;2.90;2.70;;;24.80;22.80;;;;;;5006889;28;20282;-44
2022/04/18 12:17:20;;;;;;;3.10;2.80;;;24.90;22.40;;;;;;5007659;28;20502;-43
2022/04/18 12:19:45;;;;;;;3.30;2.77;;;25.40;22.70;;;;;;5008685;28;20847;-45
2022/04/18 12:22:24;;;;;;;3.13;2.83;;;25.40;22.30;;;;;;5002054;28;20259;-43
2022/04/18 12:24:50;;;;;;;4.40;2.90;;;25.50;23.10;;;;;;5007184;28;20197;-44
2022/04/18 12:27:16;;;;;;;4.60;3.10;;;26.20;23.00;;;;;;5002294;28;20485;-44
2022/04/18 12:29:45;;;;;;;2.90;2.47;;;26.60;21.10;;;;;;5002647;28;20488;-45
2022/04/18 12:32:26;;;;;;;3.30;3.00;;;26.90;21.50;;;;;;5006401;28;20455;-44
2022/04/18 12:34:53;;;;;;;3.20;2.90;;;26.90;21.30;;;;;;5006832;28;20527;-45
2022/04/18 12:37:25;;;;;;;3.43;2.77;;;26.70;21.50;;;;;;5006727;28;20437;-43
2022/04/18 12:40:11;;;;;;;3.50;2.80;;;26.90;21.00;;;;;;5004934;28;20968;-44
2022/04/18 12:42:37;;;;;;;3.40;2.93;;;27.00;20.30;;;;;;5005325;28;20510;-44
2022/04/18 12:45:03;;;;;;;4.10;2.90;;;27.20;20.80;;;;;;5002456;28;20480;-45
2022/04/18 12:47:32;;;;;;;4.93;2.80;;;27.50;20.60;;;;;;5006926;28;20198;-44
2022/04/18 12:50:05;;;;;;;3.73;2.73;;;27.70;20.30;;;;;;5006619;28;20363;-43
2022/04/18 12:52:31;;;;;;;4.37;2.70;;;27.80;21.60;;;;;;5003443;28;20447;-44
2022/04/18 12:55:07;;;;;;;3.10;2.40;;;27.90;21.20;;;;;;5003340;28;20805;-43
2022/04/18 12:57:33;;;;;;;2.70;2.50;;;27.70;22.20;;;;;;5006861;28;20661;-43
2022/04/18 13:00:14;;;;;;;2.63;2.40;;;27.80;20.20;;;;;;5016157;28;20424;-46
2022/04/18 13:02:40;;;;;;;3.10;2.80;;;27.20;20.30;;;;;;5022690;28;20507;-44
2022/04/18 13:05:07;;;;;;;3.57;2.77;;;27.10;20.10;;;;;;5010648;28;20449;-45
2022/04/18 13:07:39;;;;;;;3.47;3.17;;;26.60;20.60;;;;;;5011470;28;20847;-46
2022/04/18 13:10:05;;;;;;;2.83;2.63;;;25.50;21.20;;;;;;5011318;28;20984;-45
2022/04/18 13:12:31;;;;;;;3.73;2.90;;;25.80;21.60;;;;;;5010725;28;20567;-42
2022/04/18 13:15:04;;;;;;;3.00;2.70;;;26.40;21.60;;;;;;5010758;28;20996;-42
2022/04/18 13:17:33;;;;;;;2.20;2.10;;;26.70;20.70;;;;;;5011408;28;20248;-42